Time;durP1;ratioP1;P1;durP2;ratioP2;P2;SDS_P1;SDS_P2;PMS_P1;PMS_P2;Temp;Humidity;BMP_temperature;BMP_pressure;BME280_temperature;BME280_humidity;BME280_pressure;Samples;Min_cycle;Max_cycle;Signal;HPM_P1;HPM_P2
2021/09/06 00:00:28;;;;;;;21.58;9.20;;;;;;;;;;4929054;28;20039;-80
2021/09/06 00:02:53;;;;;;;20.02;8.85;;;;;;;;;;4946382;28;20536;-80
2021/09/06 00:05:20;;;;;;;20.20;8.90;;;;;;;;;;4943551;28;20035;-80
2021/09/06 00:07:46;;;;;;;24.02;9.30;;;;;;;;;;4935453;28;20035;-79
2021/09/06 00:10:37;;;;;;;23.63;9.18;;;;;;;;;;4949551;28;20034;-80
2021/09/06 00:13:04;;;;;;;19.98;9.77;;;;;;;;;;4943646;28;20031;-80
2021/09/06 00:15:30;;;;;;;21.02;9.45;;;;;;;;;;4938208;28;20517;-79
2021/09/06 00:17:56;;;;;;;19.45;9.40;;;;;;;;;;4959098;28;20047;-80
2021/09/06 00:20:23;;;;;;;17.60;9.05;;;;;;;;;;4942645;28;20041;-80
2021/09/06 00:22:48;;;;;;;17.90;8.82;;;;;;;;;;4944775;28;20064;-80
2021/09/06 00:25:14;;;;;;;23.70;9.65;;;;;;;;;;4947372;28;20612;-80
2021/09/06 00:27:40;;;;;;;21.95;9.32;;;;;;;;;;4924971;28;20049;-80
2021/09/06 00:30:06;;;;;;;18.95;9.15;;;;;;;;;;4945027;28;20488;-79
2021/09/06 00:32:34;;;;;;;19.08;8.75;;;;;;;;;;4946944;28;20102;-80
2021/09/06 00:35:00;;;;;;;19.80;9.18;;;;;;;;;;4945958;28;20106;-80
2021/09/06 00:37:25;;;;;;;23.40;8.90;;;;;;;;;;4946674;28;20051;-79
2021/09/06 00:39:51;;;;;;;13.57;8.52;;;;;;;;;;4949584;28;20049;-80
2021/09/06 00:42:16;;;;;;;18.48;8.73;;;;;;;;;;4941411;28;20094;-80
2021/09/06 00:44:42;;;;;;;17.35;8.63;;;;;;;;;;4933742;28;20610;-80
2021/09/06 00:47:08;;;;;;;22.35;9.75;;;;;;;;;;4956043;28;20583;-80
2021/09/06 00:49:33;;;;;;;16.20;9.25;;;;;;;;;;4944934;28;20123;-80
2021/09/06 00:51:59;;;;;;;15.90;8.88;;;;;;;;;;4945800;28;20035;-80
2021/09/06 00:54:25;;;;;;;20.40;9.18;;;;;;;;;;4945657;28;20072;-80
2021/09/06 00:56:51;;;;;;;16.33;8.55;;;;;;;;;;4942559;28;20039;-80
2021/09/06 00:59:16;;;;;;;15.85;8.45;;;;;;;;;;4945371;28;20549;-79
2021/09/06 01:01:42;;;;;;;12.57;8.13;;;;;;;;;;4947497;28;20135;-80
2021/09/06 01:04:07;;;;;;;16.20;8.13;;;;;;;;;;4947327;28;20035;-80
2021/09/06 01:06:33;;;;;;;15.68;8.15;;;;;;;;;;4921762;28;20041;-80
2021/09/06 01:08:58;;;;;;;16.65;8.45;;;;;;;;;;4944335;28;20669;-80
2021/09/06 01:11:24;;;;;;;16.65;8.13;;;;;;;;;;4938188;28;20138;-80
2021/09/06 01:13:50;;;;;;;15.98;9.07;;;;;;;;;;4948180;28;20483;-80
2021/09/06 01:16:17;;;;;;;14.73;8.13;;;;;;;;;;4937151;28;20050;-80
2021/09/06 01:18:42;;;;;;;15.40;8.43;;;;;;;;;;4942345;28;20421;-80
2021/09/06 01:21:08;;;;;;;15.75;8.25;;;;;;;;;;4942890;28;20039;-80
2021/09/06 01:23:33;;;;;;;26.73;10.20;;;;;;;;;;4945698;28;20023;-80
2021/09/06 01:25:59;;;;;;;17.75;8.60;;;;;;;;;;4945149;28;20143;-80
2021/09/06 01:28:24;;;;;;;14.77;8.52;;;;;;;;;;4944330;28;20062;-80
2021/09/06 01:30:50;;;;;;;15.07;8.43;;;;;;;;;;4941798;28;20042;-80
2021/09/06 01:33:15;;;;;;;16.05;8.55;;;;;;;;;;4943561;28;20712;-80
2021/09/06 01:35:41;;;;;;;15.68;7.82;;;;;;;;;;4945840;28;20042;-80
2021/09/06 01:38:06;;;;;;;17.60;9.10;;;;;;;;;;4939921;28;20038;-81
2021/09/06 01:40:32;;;;;;;24.65;8.50;;;;;;;;;;4949168;28;20027;-80
2021/09/06 01:42:57;;;;;;;22.05;8.82;;;;;;;;;;4944482;28;20504;-80
2021/09/06 01:45:23;;;;;;;16.20;8.90;;;;;;;;;;4944118;28;20039;-80
2021/09/06 01:47:48;;;;;;;17.80;9.05;;;;;;;;;;4943098;28;20035;-80
2021/09/06 01:50:14;;;;;;;16.20;8.50;;;;;;;;;;4923077;29;20047;-80
2021/09/06 01:52:39;;;;;;;17.83;9.25;;;;;;;;;;4944094;28;20066;-80
2021/09/06 01:55:05;;;;;;;14.80;8.00;;;;;;;;;;4946579;28;20042;-80
2021/09/06 01:57:31;;;;;;;18.67;9.43;;;;;;;;;;4945745;28;20031;-80
2021/09/06 01:59:57;;;;;;;15.13;8.80;;;;;;;;;;4943817;28;20417;-81
2021/09/06 02:02:23;;;;;;;16.30;8.65;;;;;;;;;;4940353;28;20042;-81
2021/09/06 02:04:49;;;;;;;19.08;10.05;;;;;;;;;;4944252;28;20032;-81
2021/09/06 02:07:15;;;;;;;18.33;9.00;;;;;;;;;;4945855;28;20039;-80
2021/09/06 02:09:41;;;;;;;15.65;8.93;;;;;;;;;;4944924;28;20027;-80
2021/09/06 02:12:06;;;;;;;19.95;9.43;;;;;;;;;;4944622;28;20062;-80
2021/09/06 02:14:32;;;;;;;18.80;9.65;;;;;;;;;;4960615;28;20055;-81
2021/09/06 02:16:57;;;;;;;18.38;9.57;;;;;;;;;;4937723;28;20518;-81
2021/09/06 02:19:23;;;;;;;15.93;9.23;;;;;;;;;;4924456;28;20085;-80
2021/09/06 02:21:48;;;;;;;19.70;9.93;;;;;;;;;;4929379;29;20027;-79
2021/09/06 02:24:16;;;;;;;22.52;9.20;;;;;;;;;;4924653;29;20039;-80
2021/09/06 02:26:41;;;;;;;18.60;9.90;;;;;;;;;;4940472;28;20114;-80
2021/09/06 02:29:07;;;;;;;16.77;9.10;;;;;;;;;;4946465;28;20457;-80
2021/09/06 02:31:32;;;;;;;24.25;9.85;;;;;;;;;;4942183;28;20789;-80
2021/09/06 02:33:58;;;;;;;18.00;9.70;;;;;;;;;;4921090;29;20038;-80
2021/09/06 02:36:23;;;;;;;19.92;9.70;;;;;;;;;;4942797;28;20485;-80
2021/09/06 02:38:49;;;;;;;20.67;9.82;;;;;;;;;;4946581;28;20094;-80
2021/09/06 02:41:14;;;;;;;21.23;10.23;;;;;;;;;;4942965;28;20031;-80
2021/09/06 02:43:40;;;;;;;18.05;9.75;;;;;;;;;;4947311;28;20135;-80
2021/09/06 02:46:06;;;;;;;19.80;10.52;;;;;;;;;;4933707;28;20502;-80
2021/09/06 02:48:31;;;;;;;19.23;10.02;;;;;;;;;;4946863;28;20027;-80
2021/09/06 02:50:56;;;;;;;19.75;9.25;;;;;;;;;;4931062;28;20043;-80
2021/09/06 02:53:22;;;;;;;19.48;10.10;;;;;;;;;;4962858;28;20023;-80
2021/09/06 02:55:48;;;;;;;19.88;9.45;;;;;;;;;;4921970;29;20027;-80
2021/09/06 02:58:13;;;;;;;19.10;9.48;;;;;;;;;;4925799;29;20027;-80
2021/09/06 03:00:39;;;;;;;19.00;10.18;;;;;;;;;;4933848;29;20038;-80
2021/09/06 03:03:04;;;;;;;20.33;9.35;;;;;;;;;;4949700;28;20036;-80
2021/09/06 03:05:31;;;;;;;20.55;9.18;;;;;;;;;;4949440;28;20062;-80
2021/09/06 03:07:58;;;;;;;22.45;10.45;;;;;;;;;;4948880;28;20062;-80
2021/09/06 03:10:23;;;;;;;20.95;10.57;;;;;;;;;;4942027;28;20067;-80
2021/09/06 03:12:49;;;;;;;15.70;9.98;;;;;;;;;;4943859;28;20062;-79
2021/09/06 03:15:14;;;;;;;18.58;10.48;;;;;;;;;;4941380;28;20098;-80
2021/09/06 03:17:40;;;;;;;22.92;11.20;;;;;;;;;;4950781;28;20555;-80
2021/09/06 03:20:06;;;;;;;21.13;10.00;;;;;;;;;;4942724;28;20054;-80
2021/09/06 03:22:32;;;;;;;23.83;10.23;;;;;;;;;;4951580;28;20031;-80
2021/09/06 03:24:57;;;;;;;20.20;10.63;;;;;;;;;;4949389;28;20031;-80
2021/09/06 03:27:22;;;;;;;20.77;10.60;;;;;;;;;;4923459;29;20019;-80
2021/09/06 03:29:48;;;;;;;22.52;11.60;;;;;;;;;;4945131;28;20098;-80
2021/09/06 03:32:14;;;;;;;19.70;10.30;;;;;;;;;;4946200;28;20042;-81
2021/09/06 03:34:39;;;;;;;20.20;10.45;;;;;;;;;;4942959;28;20103;-79
2021/09/06 03:37:05;;;;;;;19.20;11.15;;;;;;;;;;4945239;28;20043;-79
2021/09/06 03:39:31;;;;;;;21.55;10.80;;;;;;;;;;4944582;28;20038;-80
2021/09/06 03:41:56;;;;;;;22.80;12.32;;;;;;;;;;4944871;28;20120;-80
2021/09/06 03:44:24;;;;;;;24.77;11.38;;;;;;;;;;4947356;28;20031;-79
2021/09/06 03:46:50;;;;;;;21.02;11.45;;;;;;;;;;4943079;28;20039;-80
2021/09/06 03:49:15;;;;;;;25.48;11.82;;;;;;;;;;4945264;28;20121;-80
2021/09/06 03:51:40;;;;;;;24.33;11.23;;;;;;;;;;4944710;28;20067;-80
2021/09/06 03:54:06;;;;;;;28.80;12.15;;;;;;;;;;4948832;28;20035;-80
2021/09/06 03:56:31;;;;;;;24.73;11.30;;;;;;;;;;4948454;28;20500;-80
2021/09/06 03:58:57;;;;;;;27.10;11.95;;;;;;;;;;4947578;28;20408;-80
2021/09/06 04:01:22;;;;;;;24.30;11.77;;;;;;;;;;4952099;28;20512;-79
2021/09/06 04:03:48;;;;;;;24.95;11.65;;;;;;;;;;4949979;28;20038;-80
2021/09/06 04:06:13;;;;;;;29.38;11.38;;;;;;;;;;4922560;28;20047;-80
2021/09/06 04:08:39;;;;;;;22.45;11.70;;;;;;;;;;4945970;28;20070;-79
2021/09/06 04:11:04;;;;;;;21.55;11.98;;;;;;;;;;4946825;28;20039;-80
2021/09/06 04:13:30;;;;;;;24.92;11.98;;;;;;;;;;4929198;29;20090;-79
2021/09/06 04:15:55;;;;;;;20.27;10.63;;;;;;;;;;4952089;28;20047;-80
2021/09/06 04:18:20;;;;;;;20.55;11.23;;;;;;;;;;4923737;29;20059;-80
2021/09/06 04:20:47;;;;;;;24.73;11.80;;;;;;;;;;4943342;28;20036;-79
2021/09/06 04:23:12;;;;;;;22.77;11.50;;;;;;;;;;4915584;28;20568;-80
2021/09/06 04:25:38;;;;;;;21.63;11.18;;;;;;;;;;4950224;28;20169;-79
2021/09/06 04:28:03;;;;;;;25.10;11.35;;;;;;;;;;4946797;28;20061;-80
2021/09/06 04:30:29;;;;;;;21.73;11.48;;;;;;;;;;4926552;28;20039;-80
2021/09/06 04:32:54;;;;;;;22.73;11.43;;;;;;;;;;4940327;28;20158;-80
2021/09/06 04:35:20;;;;;;;37.92;12.90;;;;;;;;;;4949226;28;20039;-80
2021/09/06 04:37:45;;;;;;;19.92;11.07;;;;;;;;;;4940640;28;20031;-80
2021/09/06 04:40:11;;;;;;;20.08;9.95;;;;;;;;;;4946617;28;20485;-79
2021/09/06 04:42:37;;;;;;;22.77;11.38;;;;;;;;;;4945715;28;20110;-79
2021/09/06 04:45:03;;;;;;;21.92;11.40;;;;;;;;;;4917269;29;20131;-79
2021/09/06 04:47:28;;;;;;;21.88;10.98;;;;;;;;;;4935639;28;20041;-79
2021/09/06 04:49:54;;;;;;;21.75;10.80;;;;;;;;;;4951401;28;20186;-78
2021/09/06 04:52:19;;;;;;;21.38;11.32;;;;;;;;;;4942044;28;20651;-80
2021/09/06 04:54:45;;;;;;;23.63;10.98;;;;;;;;;;4946048;28;21837;-79
2021/09/06 04:57:10;;;;;;;23.00;12.20;;;;;;;;;;4941954;28;20040;-80
2021/09/06 04:59:35;;;;;;;19.77;10.77;;;;;;;;;;4924861;29;20053;-79
2021/09/06 05:02:01;;;;;;;20.65;11.25;;;;;;;;;;4947491;28;20066;-80
2021/09/06 05:04:26;;;;;;;24.25;11.48;;;;;;;;;;4943065;28;20036;-80
2021/09/06 05:06:54;;;;;;;25.35;12.40;;;;;;;;;;4942165;28;20067;-80
2021/09/06 05:09:20;;;;;;;25.17;11.85;;;;;;;;;;4937337;28;20034;-80
2021/09/06 05:11:46;;;;;;;28.75;12.05;;;;;;;;;;4945529;28;20035;-80
2021/09/06 05:14:11;;;;;;;25.13;12.48;;;;;;;;;;4940702;28;20047;-80
2021/09/06 05:16:37;;;;;;;23.40;11.90;;;;;;;;;;4948374;28;20034;-80
2021/09/06 05:19:02;;;;;;;26.20;12.23;;;;;;;;;;4948654;28;20027;-80
2021/09/06 05:21:28;;;;;;;26.08;11.73;;;;;;;;;;4945054;28;20027;-79
2021/09/06 05:23:53;;;;;;;23.17;12.35;;;;;;;;;;4945928;28;20030;-79
2021/09/06 05:26:19;;;;;;;23.38;12.88;;;;;;;;;;4934242;28;20032;-80
2021/09/06 05:28:44;;;;;;;26.23;12.50;;;;;;;;;;4931015;28;20041;-80
2021/09/06 05:31:10;;;;;;;21.05;12.00;;;;;;;;;;4948800;28;20039;-79
2021/09/06 05:33:36;;;;;;;32.55;12.75;;;;;;;;;;4942141;28;20027;-80
2021/09/06 05:36:02;;;;;;;28.25;13.50;;;;;;;;;;4945146;28;20034;-80
2021/09/06 05:38:27;;;;;;;24.73;12.75;;;;;;;;;;4927020;29;20567;-80
2021/09/06 05:40:53;;;;;;;22.60;12.85;;;;;;;;;;4921557;28;20074;-80
2021/09/06 05:43:18;;;;;;;23.88;12.10;;;;;;;;;;4955179;28;20043;-79
2021/09/06 05:45:44;;;;;;;26.58;11.63;;;;;;;;;;4933044;29;20066;-80
2021/09/06 05:48:09;;;;;;;27.65;12.13;;;;;;;;;;4943041;28;20146;-80
2021/09/06 05:50:35;;;;;;;24.83;12.52;;;;;;;;;;4943443;28;20453;-79
2021/09/06 05:53:01;;;;;;;26.27;12.65;;;;;;;;;;4946624;28;20102;-80
2021/09/06 05:55:27;;;;;;;26.90;12.10;;;;;;;;;;4927977;28;20505;-79
2021/09/06 05:57:52;;;;;;;23.42;12.07;;;;;;;;;;4926840;29;20044;-80
2021/09/06 06:00:18;;;;;;;27.50;12.43;;;;;;;;;;4915521;28;20443;-80
2021/09/06 06:02:45;;;;;;;21.25;11.98;;;;;;;;;;4943005;28;20061;-80
2021/09/06 06:05:10;;;;;;;24.17;12.43;;;;;;;;;;4929161;28;20059;-80
2021/09/06 06:07:36;;;;;;;25.98;12.88;;;;;;;;;;4946337;28;20424;-80
2021/09/06 06:10:02;;;;;;;22.63;12.43;;;;;;;;;;4947361;28;20126;-80
2021/09/06 06:12:28;;;;;;;24.10;11.48;;;;;;;;;;4926046;28;20050;-79
2021/09/06 06:14:58;;;;;;;25.73;12.30;;;;;;;;;;4923340;29;20043;-80
2021/09/06 06:17:24;;;;;;;23.38;11.38;;;;;;;;;;4945947;28;20671;-80
2021/09/06 06:19:51;;;;;;;28.55;12.98;;;;;;;;;;4947480;28;20090;-79
2021/09/06 06:22:17;;;;;;;23.25;12.02;;;;;;;;;;4946615;28;20547;-80
2021/09/06 06:24:42;;;;;;;29.05;12.15;;;;;;;;;;4941705;28;20041;-80
2021/09/06 06:27:08;;;;;;;26.27;12.77;;;;;;;;;;4946547;28;20159;-80
2021/09/06 06:29:34;;;;;;;23.10;11.88;;;;;;;;;;4945538;28;20027;-80
2021/09/06 06:32:00;;;;;;;23.20;11.40;;;;;;;;;;4933882;28;20055;-79
2021/09/06 06:34:26;;;;;;;21.77;12.20;;;;;;;;;;4913623;29;21225;-80
2021/09/06 06:36:54;;;;;;;23.85;11.73;;;;;;;;;;4943538;28;20067;-78
2021/09/06 06:39:20;;;;;;;22.95;11.85;;;;;;;;;;4939117;28;20192;-79
2021/09/06 06:41:46;;;;;;;26.50;12.43;;;;;;;;;;4945866;28;20142;-79
2021/09/06 06:44:15;;;;;;;22.63;11.63;;;;;;;;;;4944072;28;20032;-79
2021/09/06 06:46:40;;;;;;;19.95;11.68;;;;;;;;;;4948138;28;20033;-79
2021/09/06 06:49:06;;;;;;;26.92;12.50;;;;;;;;;;4947152;28;20118;-79
2021/09/06 06:51:33;;;;;;;24.02;12.27;;;;;;;;;;4930800;29;20039;-79
2021/09/06 06:53:58;;;;;;;26.63;12.73;;;;;;;;;;4948919;28;20045;-79
2021/09/06 06:56:24;;;;;;;21.92;12.05;;;;;;;;;;4950499;28;20035;-78
2021/09/06 06:58:49;;;;;;;28.20;13.77;;;;;;;;;;4938740;28;20047;-78
2021/09/06 07:01:15;;;;;;;25.65;11.93;;;;;;;;;;4955858;28;20394;-79
2021/09/06 07:03:41;;;;;;;29.80;12.82;;;;;;;;;;4950587;28;20070;-79
2021/09/06 07:06:06;;;;;;;29.10;13.20;;;;;;;;;;4932428;29;20607;-77
2021/09/06 07:08:32;;;;;;;26.75;12.60;;;;;;;;;;4951473;28;20528;-78
2021/09/06 07:10:57;;;;;;;27.50;12.02;;;;;;;;;;4949214;28;20058;-79
2021/09/06 07:13:23;;;;;;;28.55;13.95;;;;;;;;;;4950928;28;20024;-79
2021/09/06 07:15:48;;;;;;;31.30;13.88;;;;;;;;;;4953833;28;20039;-79
2021/09/06 07:18:14;;;;;;;37.80;16.25;;;;;;;;;;4937711;29;20118;-79
2021/09/06 07:20:39;;;;;;;39.53;17.02;;;;;;;;;;4955166;28;20431;-79
2021/09/06 07:23:05;;;;;;;42.35;17.27;;;;;;;;;;4959054;28;20043;-79
2021/09/06 07:25:30;;;;;;;43.95;18.65;;;;;;;;;;4956430;28;20145;-79
2021/09/06 07:27:56;;;;;;;41.15;18.58;;;;;;;;;;4953458;28;20433;-78
2021/09/06 07:30:22;;;;;;;42.15;18.10;;;;;;;;;;4953586;28;20030;-79
2021/09/06 07:32:48;;;;;;;54.33;18.40;;;;;;;;;;4954813;28;20508;-79
2021/09/06 07:35:14;;;;;;;42.50;20.15;;;;;;;;;;4950722;28;20028;-78
2021/09/06 07:37:40;;;;;;;41.85;18.05;;;;;;;;;;4937106;28;20130;-79
2021/09/06 07:40:10;;;;;;;43.75;19.45;;;;;;;;;;4952609;28;20039;-79
2021/09/06 07:42:36;;;;;;;42.03;19.42;;;;;;;;;;4962677;28;20062;-79
2021/09/06 07:45:03;;;;;;;46.42;18.55;;;;;;;;;;4953974;28;20030;-79
2021/09/06 07:47:28;;;;;;;46.63;20.13;;;;;;;;;;4956054;28;20436;-79
2021/09/06 07:49:55;;;;;;;39.53;18.60;;;;;;;;;;4951830;28;20046;-79
2021/09/06 07:52:20;;;;;;;43.70;19.65;;;;;;;;;;4956243;28;20111;-80
2021/09/06 07:54:46;;;;;;;42.50;19.70;;;;;;;;;;4958707;28;20028;-79
2021/09/06 07:57:11;;;;;;;42.13;19.40;;;;;;;;;;4945415;29;20047;-80
2021/09/06 07:59:37;;;;;;;44.08;19.42;;;;;;;;;;4956455;28;20070;-79
2021/09/06 08:02:03;;;;;;;44.42;18.25;;;;;;;;;;4950530;28;20058;-78
2021/09/06 08:04:28;;;;;;;39.72;17.67;;;;;;;;;;4909688;29;20054;-79
2021/09/06 08:06:54;;;;;;;38.35;16.90;;;;;;;;;;4948601;28;20038;-79
2021/09/06 08:09:19;;;;;;;37.60;18.33;;;;;;;;;;4932195;29;20035;-79
2021/09/06 08:11:48;;;;;;;38.92;18.52;;;;;;;;;;4945562;28;20034;-79
2021/09/06 08:14:15;;;;;;;41.05;17.38;;;;;;;;;;4942554;28;20883;-80
2021/09/06 08:16:41;;;;;;;34.85;15.95;;;;;;;;;;4950280;28;20034;-79
2021/09/06 08:19:06;;;;;;;35.72;15.93;;;;;;;;;;4930566;28;20036;-79
2021/09/06 08:21:32;;;;;;;35.78;16.48;;;;;;;;;;4943858;28;20039;-79
2021/09/06 08:23:58;;;;;;;35.95;16.50;;;;;;;;;;4950480;28;20039;-79
2021/09/06 08:26:25;;;;;;;34.30;14.73;;;;;;;;;;4950071;28;20599;-80
2021/09/06 08:28:51;;;;;;;34.03;16.02;;;;;;;;;;4944530;28;20058;-79
2021/09/06 08:31:16;;;;;;;38.25;16.55;;;;;;;;;;4946971;28;20556;-79
2021/09/06 08:33:42;;;;;;;30.83;15.18;;;;;;;;;;4945948;28;20111;-78
2021/09/06 08:36:09;;;;;;;34.67;16.65;;;;;;;;;;4946760;28;20031;-79
2021/09/06 08:38:35;;;;;;;44.50;18.05;;;;;;;;;;4940172;28;20031;-79
2021/09/06 08:41:02;;;;;;;34.90;16.45;;;;;;;;;;4943270;28;20034;-79
2021/09/06 08:43:29;;;;;;;29.90;15.05;;;;;;;;;;4944313;28;20083;-78
2021/09/06 08:45:54;;;;;;;32.10;15.10;;;;;;;;;;4947902;28;20038;-79
2021/09/06 08:48:20;;;;;;;35.65;15.30;;;;;;;;;;4947625;28;20027;-79
2021/09/06 08:50:46;;;;;;;39.40;16.48;;;;;;;;;;4947675;28;20027;-79
2021/09/06 08:53:12;;;;;;;33.58;14.65;;;;;;;;;;4949382;28;20055;-79
2021/09/06 08:55:41;;;;;;;31.85;15.00;;;;;;;;;;4947356;28;20164;-79
2021/09/06 08:58:07;;;;;;;30.83;15.15;;;;;;;;;;4945470;28;20039;-79
2021/09/06 09:00:32;;;;;;;50.90;14.38;;;;;;;;;;4953797;28;20035;-79
2021/09/06 09:03:00;;;;;;;41.78;13.63;;;;;;;;;;4951361;28;20087;-79
2021/09/06 09:05:25;;;;;;;28.05;12.93;;;;;;;;;;4948679;28;20042;-79
2021/09/06 09:07:58;;;;;;;28.70;13.75;;;;;;;;;;4951388;28;20031;-79
2021/09/06 09:10:30;;;;;;;30.63;13.15;;;;;;;;;;4951535;28;20114;-79
2021/09/06 09:13:07;;;;;;;19.58;10.30;;;;;;;;;;4943843;28;20767;-79
2021/09/06 09:15:34;;;;;;;26.20;11.65;;;;;;;;;;4954006;28;20042;-79
2021/09/06 09:18:00;;;;;;;29.80;12.70;;;;;;;;;;4947483;28;20036;-79
2021/09/06 09:20:59;;;;;;;20.15;11.65;;;;;;;;;;4926106;28;20562;-79
2021/09/06 09:23:40;;;;;;;21.48;10.13;;;;;;;;;;4948141;28;20042;-79
2021/09/06 09:26:06;;;;;;;32.92;10.40;;;;;;;;;;4950326;28;20027;-79
2021/09/06 09:28:32;;;;;;;29.52;11.40;;;;;;;;;;4950140;28;20109;-80
2021/09/06 09:31:08;;;;;;;26.52;11.45;;;;;;;;;;4957983;28;20473;-79
2021/09/06 09:33:42;;;;;;;31.33;12.38;;;;;;;;;;4951400;28;20110;-80
2021/09/06 09:36:08;;;;;;;30.98;10.68;;;;;;;;;;4941745;28;20027;-79
2021/09/06 09:38:35;;;;;;;22.38;10.60;;;;;;;;;;4948631;28;20034;-79
2021/09/06 09:41:01;;;;;;;19.10;10.48;;;;;;;;;;4945255;28;20512;-79
2021/09/06 09:43:30;;;;;;;21.75;10.13;;;;;;;;;;4956079;28;20042;-79
2021/09/06 09:46:05;;;;;;;21.23;10.45;;;;;;;;;;4960276;28;20030;-80
2021/09/06 09:48:30;;;;;;;27.80;10.82;;;;;;;;;;4946848;28;20039;-80
2021/09/06 09:50:56;;;;;;;22.05;11.55;;;;;;;;;;4947231;28;20042;-79
2021/09/06 09:53:23;;;;;;;23.60;11.82;;;;;;;;;;4952975;28;20074;-79
2021/09/06 09:55:49;;;;;;;28.17;12.07;;;;;;;;;;4937837;28;20079;-79
2021/09/06 09:58:16;;;;;;;32.13;12.85;;;;;;;;;;4946822;28;20079;-80
2021/09/06 10:00:45;;;;;;;32.20;12.68;;;;;;;;;;4946981;28;20059;-79
2021/09/06 10:03:12;;;;;;;26.27;12.15;;;;;;;;;;4952627;28;20138;-80
2021/09/06 10:05:39;;;;;;;25.42;12.65;;;;;;;;;;4952992;28;20396;-79
2021/09/06 10:08:10;;;;;;;32.35;13.80;;;;;;;;;;4948535;28;20117;-79
2021/09/06 10:10:37;;;;;;;37.55;13.85;;;;;;;;;;4949541;28;20046;-80
2021/09/06 10:13:14;;;;;;;34.28;14.02;;;;;;;;;;4940356;28;20373;-79
2021/09/06 10:15:43;;;;;;;37.30;13.82;;;;;;;;;;4942533;28;20639;-80
2021/09/06 10:18:20;;;;;;;33.05;13.95;;;;;;;;;;4948530;28;20078;-79
2021/09/06 10:20:47;;;;;;;32.88;15.20;;;;;;;;;;4951850;28;20406;-79
2021/09/06 10:23:13;;;;;;;34.45;15.70;;;;;;;;;;4948445;28;20075;-79
2021/09/06 10:25:42;;;;;;;33.75;14.43;;;;;;;;;;4954502;28;20027;-79
2021/09/06 10:28:11;;;;;;;33.15;13.48;;;;;;;;;;4948300;28;20031;-79
2021/09/06 10:30:47;;;;;;;26.35;12.77;;;;;;;;;;4947601;28;20114;-79
2021/09/06 10:33:29;;;;;;;30.45;13.38;;;;;;;;;;4948154;28;20106;-79
2021/09/06 10:36:04;;;;;;;;;;;;;;;;;;4949914;28;20028;-80
2021/09/06 10:38:39;;;;;;;28.55;13.10;;;;;;;;;;4952189;28;19933;-79
2021/09/06 10:41:10;;;;;;;29.88;12.85;;;;;;;;;;4948394;28;20070;-80
2021/09/06 10:43:48;;;;;;;28.27;13.93;;;;;;;;;;4947966;28;20038;-80
2021/09/06 10:46:16;;;;;;;26.33;12.60;;;;;;;;;;4956590;28;20053;-79
2021/09/06 10:48:41;;;;;;;36.45;13.95;;;;;;;;;;4948453;28;20039;-79
2021/09/06 10:51:09;;;;;;;31.35;13.95;;;;;;;;;;4949949;28;20114;-79
2021/09/06 10:53:34;;;;;;;24.60;12.25;;;;;;;;;;4951737;28;20051;-79
2021/09/06 10:56:00;;;;;;;29.38;14.35;;;;;;;;;;4942530;28;20098;-80
2021/09/06 10:58:27;;;;;;;29.95;13.48;;;;;;;;;;4946439;28;20031;-79
2021/09/06 11:00:55;;;;;;;31.42;14.23;;;;;;;;;;4952593;28;20035;-79
2021/09/06 11:03:21;;;;;;;23.40;11.80;;;;;;;;;;4949340;28;20047;-80
2021/09/06 11:05:56;;;;;;;26.58;12.52;;;;;;;;;;4950695;28;20023;-79
2021/09/06 11:08:29;;;;;;;31.55;13.48;;;;;;;;;;4944029;28;20042;-79
2021/09/06 11:10:57;;;;;;;25.42;12.57;;;;;;;;;;4952816;28;20038;-79
2021/09/06 11:13:31;;;;;;;23.40;13.27;;;;;;;;;;4955371;28;20102;-79
2021/09/06 11:15:57;;;;;;;30.48;12.73;;;;;;;;;;4947842;28;20046;-81
2021/09/06 11:18:22;;;;;;;26.88;12.70;;;;;;;;;;4946361;28;20024;-79
2021/09/06 11:20:48;;;;;;;30.23;12.63;;;;;;;;;;4947084;28;20135;-80
2021/09/06 11:23:13;;;;;;;30.73;13.73;;;;;;;;;;4954416;28;20075;-80
2021/09/06 11:25:42;;;;;;;32.10;14.50;;;;;;;;;;4950604;28;20051;-80
2021/09/06 11:28:10;;;;;;;26.13;12.98;;;;;;;;;;4952972;28;20094;-80
2021/09/06 11:30:39;;;;;;;24.02;11.57;;;;;;;;;;4964928;28;20034;-81
2021/09/06 11:33:06;;;;;;;24.67;11.70;;;;;;;;;;4952661;28;20035;-81
2021/09/06 11:35:36;;;;;;;21.60;10.98;;;;;;;;;;4951488;28;20041;-81
2021/09/06 11:38:03;;;;;;;25.30;11.55;;;;;;;;;;4951176;28;20039;-79
2021/09/06 11:40:29;;;;;;;24.30;11.63;;;;;;;;;;4940197;28;20019;-80
2021/09/06 11:42:55;;;;;;;25.85;11.00;;;;;;;;;;4948269;28;20035;-80
2021/09/06 11:45:21;;;;;;;19.00;10.00;;;;;;;;;;4946980;28;20028;-79
2021/09/06 11:47:48;;;;;;;18.15;10.02;;;;;;;;;;4948230;28;20024;-80
2021/09/06 11:50:15;;;;;;;21.67;10.75;;;;;;;;;;4950348;28;20094;-80
2021/09/06 11:52:43;;;;;;;28.60;11.43;;;;;;;;;;4953617;28;20051;-79
2021/09/06 11:55:16;;;;;;;28.13;11.73;;;;;;;;;;4960868;28;20026;-80
2021/09/06 11:57:42;;;;;;;25.30;13.38;;;;;;;;;;4950428;28;20059;-79
2021/09/06 12:00:09;;;;;;;27.00;13.13;;;;;;;;;;4953238;28;20042;-79
2021/09/06 12:02:45;;;;;;;24.92;12.50;;;;;;;;;;4954849;28;20105;-79
2021/09/06 12:05:15;;;;;;;24.58;13.07;;;;;;;;;;4948169;28;20029;-79
2021/09/06 12:07:51;;;;;;;23.67;12.40;;;;;;;;;;4935227;28;20046;-79
2021/09/06 12:10:32;;;;;;;30.80;12.73;;;;;;;;;;4943281;28;20038;-79
2021/09/06 12:13:17;;;;;;;25.10;12.23;;;;;;;;;;4952459;28;20654;-79
2021/09/06 12:16:00;;;;;;;24.80;11.02;;;;;;;;;;4959450;28;20110;-81
2021/09/06 12:18:37;;;;;;;22.85;10.85;;;;;;;;;;4952296;28;20024;-80
2021/09/06 12:21:06;;;;;;;26.13;11.02;;;;;;;;;;4952046;28;20064;-80
2021/09/06 12:23:42;;;;;;;22.00;11.00;;;;;;;;;;4951881;28;20081;-80
2021/09/06 12:26:10;;;;;;;20.30;11.80;;;;;;;;;;4953521;28;20026;-80
2021/09/06 12:28:47;;;;;;;26.52;12.60;;;;;;;;;;4950740;28;20034;-79
2021/09/06 12:31:13;;;;;;;24.15;11.95;;;;;;;;;;4952472;28;20114;-78
2021/09/06 12:33:38;;;;;;;22.23;11.43;;;;;;;;;;4955163;28;20455;-79
2021/09/06 12:36:04;;;;;;;26.05;11.38;;;;;;;;;;4956592;28;20141;-79
2021/09/06 12:38:31;;;;;;;22.60;11.85;;;;;;;;;;4943294;28;20464;-80
2021/09/06 12:40:56;;;;;;;23.05;10.93;;;;;;;;;;4929363;29;20126;-79
2021/09/06 12:43:22;;;;;;;24.13;11.50;;;;;;;;;;4935509;28;20126;-79
2021/09/06 12:45:47;;;;;;;27.23;11.40;;;;;;;;;;4951110;28;20062;-79
2021/09/06 12:48:13;;;;;;;27.80;11.40;;;;;;;;;;4947551;28;20027;-80
2021/09/06 12:50:39;;;;;;;26.38;11.75;;;;;;;;;;4947769;28;20075;-80
2021/09/06 12:53:04;;;;;;;19.75;12.18;;;;;;;;;;4934693;29;20146;-79
2021/09/06 12:55:30;;;;;;;25.15;11.43;;;;;;;;;;4958841;28;20038;-80
2021/09/06 12:57:55;;;;;;;26.23;11.90;;;;;;;;;;4947719;28;20027;-79
2021/09/06 13:00:24;;;;;;;21.95;12.18;;;;;;;;;;4949475;28;20059;-78
2021/09/06 13:02:49;;;;;;;29.17;12.80;;;;;;;;;;4926049;28;20059;-80
2021/09/06 13:05:15;;;;;;;21.90;12.02;;;;;;;;;;4946873;28;20070;-79
2021/09/06 13:07:40;;;;;;;31.77;12.57;;;;;;;;;;4945216;28;20031;-79
2021/09/06 13:10:06;;;;;;;24.75;11.48;;;;;;;;;;4949603;28;20046;-79
2021/09/06 13:12:31;;;;;;;28.77;12.25;;;;;;;;;;4936988;28;20093;-79
2021/09/06 13:14:57;;;;;;;26.95;12.00;;;;;;;;;;4933866;28;20027;-80
2021/09/06 13:17:22;;;;;;;20.35;11.02;;;;;;;;;;4951922;28;20110;-79
2021/09/06 13:19:48;;;;;;;32.55;13.18;;;;;;;;;;4951228;28;20393;-80
2021/09/06 13:22:15;;;;;;;22.40;14.07;;;;;;;;;;4942757;28;20230;-78
2021/09/06 13:24:40;;;;;;;30.50;13.52;;;;;;;;;;4954196;28;20034;-79
2021/09/06 13:27:06;;;;;;;30.70;13.45;;;;;;;;;;4946056;28;20551;-81
2021/09/06 13:29:32;;;;;;;24.67;13.23;;;;;;;;;;4954411;28;20412;-79
2021/09/06 13:31:57;;;;;;;26.02;13.95;;;;;;;;;;4950196;28;20082;-80
2021/09/06 13:34:23;;;;;;;27.48;13.98;;;;;;;;;;4946374;28;20447;-79
2021/09/06 13:36:48;;;;;;;26.95;15.57;;;;;;;;;;4951876;28;20050;-80
2021/09/06 13:39:14;;;;;;;35.03;15.52;;;;;;;;;;4950444;28;20038;-79
2021/09/06 13:41:39;;;;;;;25.00;14.55;;;;;;;;;;4954570;28;20199;-79
2021/09/06 13:44:05;;;;;;;38.65;14.80;;;;;;;;;;4940465;28;20027;-79
2021/09/06 13:46:31;;;;;;;29.85;17.10;;;;;;;;;;4947776;28;20027;-79
2021/09/06 13:48:57;;;;;;;32.45;15.07;;;;;;;;;;4945798;28;20178;-79
2021/09/06 13:51:22;;;;;;;22.55;14.35;;;;;;;;;;4950423;28;20622;-79
2021/09/06 13:53:48;;;;;;;26.33;16.27;;;;;;;;;;4945726;28;20404;-79
2021/09/06 13:56:13;;;;;;;25.95;15.02;;;;;;;;;;4929719;28;20058;-79
2021/09/06 13:58:39;;;;;;;27.83;15.23;;;;;;;;;;4944499;28;20055;-79
2021/09/06 14:01:05;;;;;;;25.60;14.23;;;;;;;;;;4940184;28;20042;-80
2021/09/06 14:03:31;;;;;;;26.30;14.70;;;;;;;;;;4940010;28;20146;-79
2021/09/06 14:05:58;;;;;;;24.33;14.43;;;;;;;;;;4944762;28;20551;-79
2021/09/06 14:08:24;;;;;;;27.63;12.05;;;;;;;;;;4925318;28;20020;-79
2021/09/06 14:10:49;;;;;;;17.50;10.00;;;;;;;;;;4936684;28;20038;-80
2021/09/06 14:13:15;;;;;;;16.75;9.32;;;;;;;;;;4930697;28;20105;-80
2021/09/06 14:15:43;;;;;;;12.77;9.32;;;;;;;;;;4939907;28;20057;-79
2021/09/06 14:18:08;;;;;;;15.88;9.88;;;;;;;;;;4941771;28;20031;-83